sensor_id;sensor_type;location;lat;lon;timestamp;P1;durP1;ratioP1;P2;durP2;ratioP2
74632;SDS011;63139;52.018;8.552;2024-03-07T00:00:12;27.00;;;15.10;;
74632;SDS011;63139;52.018;8.552;2024-03-07T00:02:46;23.02;;;12.75;;
74632;SDS011;63139;52.018;8.552;2024-03-07T00:05:16;25.17;;;14.20;;
74632;SDS011;63139;52.018;8.552;2024-03-07T00:07:47;19.63;;;11.95;;
74632;SDS011;63139;52.018;8.552;2024-03-07T00:10:16;25.73;;;14.65;;
74632;SDS011;63139;52.018;8.552;2024-03-07T00:12:44;24.73;;;14.27;;
74632;SDS011;63139;52.018;8.552;2024-03-07T00:15:13;23.40;;;14.15;;
74632;SDS011;63139;52.018;8.552;2024-03-07T00:17:41;20.70;;;13.05;;
74632;SDS011;63139;52.018;8.552;2024-03-07T00:20:10;23.98;;;13.80;;
74632;SDS011;63139;52.018;8.552;2024-03-07T00:22:42;25.42;;;13.40;;
74632;SDS011;63139;52.018;8.552;2024-03-07T00:25:12;23.10;;;13.75;;
74632;SDS011;63139;52.018;8.552;2024-03-07T00:27:41;20.33;;;12.38;;
74632;SDS011;63139;52.018;8.552;2024-03-07T00:30:12;21.92;;;12.60;;
74632;SDS011;63139;52.018;8.552;2024-03-07T00:32:45;26.17;;;14.60;;
74632;SDS011;63139;52.018;8.552;2024-03-07T00:35:14;30.13;;;14.98;;
74632;SDS011;63139;52.018;8.552;2024-03-07T00:37:42;27.30;;;15.02;;
74632;SDS011;63139;52.018;8.552;2024-03-07T00:40:11;22.40;;;13.35;;
74632;SDS011;63139;52.018;8.552;2024-03-07T00:42:40;18.90;;;11.15;;
74632;SDS011;63139;52.018;8.552;2024-03-07T00:45:08;22.25;;;12.50;;
74632;SDS011;63139;52.018;8.552;2024-03-07T00:47:36;19.58;;;11.90;;
74632;SDS011;63139;52.018;8.552;2024-03-07T00:50:05;24.13;;;13.48;;
74632;SDS011;63139;52.018;8.552;2024-03-07T00:52:35;24.75;;;14.07;;
74632;SDS011;63139;52.018;8.552;2024-03-07T00:55:03;22.05;;;12.90;;
74632;SDS011;63139;52.018;8.552;2024-03-07T00:57:36;24.58;;;13.75;;
74632;SDS011;63139;52.018;8.552;2024-03-07T01:00:05;20.63;;;12.10;;
74632;SDS011;63139;52.018;8.552;2024-03-07T01:02:38;23.17;;;12.32;;
74632;SDS011;63139;52.018;8.552;2024-03-07T01:05:10;24.48;;;14.52;;
74632;SDS011;63139;52.018;8.552;2024-03-07T01:07:40;25.92;;;13.98;;
74632;SDS011;63139;52.018;8.552;2024-03-07T01:10:09;20.05;;;11.85;;
74632;SDS011;63139;52.018;8.552;2024-03-07T01:12:39;25.60;;;14.15;;
74632;SDS011;63139;52.018;8.552;2024-03-07T01:15:09;25.92;;;13.50;;
74632;SDS011;63139;52.018;8.552;2024-03-07T01:17:38;25.00;;;14.13;;
74632;SDS011;63139;52.018;8.552;2024-03-07T01:20:07;27.00;;;14.80;;
74632;SDS011;63139;52.018;8.552;2024-03-07T01:22:35;27.10;;;15.23;;
74632;SDS011;63139;52.018;8.552;2024-03-07T01:25:04;25.48;;;15.32;;
74632;SDS011;63139;52.018;8.552;2024-03-07T01:27:33;22.63;;;13.50;;
74632;SDS011;63139;52.018;8.552;2024-03-07T01:30:03;28.95;;;13.80;;
74632;SDS011;63139;52.018;8.552;2024-03-07T01:32:34;25.17;;;12.75;;
74632;SDS011;63139;52.018;8.552;2024-03-07T01:35:02;25.73;;;13.55;;
74632;SDS011;63139;52.018;8.552;2024-03-07T01:37:33;22.20;;;12.30;;
74632;SDS011;63139;52.018;8.552;2024-03-07T01:40:01;25.83;;;13.43;;
74632;SDS011;63139;52.018;8.552;2024-03-07T01:42:29;27.95;;;13.82;;
74632;SDS011;63139;52.018;8.552;2024-03-07T01:44:57;25.70;;;13.40;;
74632;SDS011;63139;52.018;8.552;2024-03-07T01:47:27;27.98;;;13.18;;
74632;SDS011;63139;52.018;8.552;2024-03-07T01:49:55;23.80;;;12.13;;
74632;SDS011;63139;52.018;8.552;2024-03-07T01:52:23;26.70;;;14.32;;
74632;SDS011;63139;52.018;8.552;2024-03-07T01:54:52;29.58;;;14.45;;
74632;SDS011;63139;52.018;8.552;2024-03-07T01:57:21;29.50;;;15.45;;
74632;SDS011;63139;52.018;8.552;2024-03-07T01:59:49;25.45;;;13.70;;
74632;SDS011;63139;52.018;8.552;2024-03-07T02:02:17;26.20;;;14.20;;
74632;SDS011;63139;52.018;8.552;2024-03-07T02:04:47;23.00;;;12.32;;
74632;SDS011;63139;52.018;8.552;2024-03-07T02:07:15;31.85;;;15.73;;
74632;SDS011;63139;52.018;8.552;2024-03-07T02:09:43;29.00;;;15.32;;
74632;SDS011;63139;52.018;8.552;2024-03-07T02:12:11;28.13;;;14.80;;
74632;SDS011;63139;52.018;8.552;2024-03-07T02:14:39;28.88;;;14.43;;
74632;SDS011;63139;52.018;8.552;2024-03-07T02:17:09;28.58;;;14.93;;
74632;SDS011;63139;52.018;8.552;2024-03-07T02:19:37;29.10;;;13.63;;
74632;SDS011;63139;52.018;8.552;2024-03-07T02:22:06;26.65;;;13.98;;
74632;SDS011;63139;52.018;8.552;2024-03-07T02:24:34;26.58;;;14.70;;
74632;SDS011;63139;52.018;8.552;2024-03-07T02:27:02;30.88;;;16.10;;
74632;SDS011;63139;52.018;8.552;2024-03-07T02:29:30;24.27;;;13.07;;
74632;SDS011;63139;52.018;8.552;2024-03-07T02:31:58;27.85;;;14.32;;
74632;SDS011;63139;52.018;8.552;2024-03-07T02:34:26;25.17;;;13.77;;
74632;SDS011;63139;52.018;8.552;2024-03-07T02:36:53;30.70;;;14.38;;
74632;SDS011;63139;52.018;8.552;2024-03-07T02:39:23;27.63;;;15.02;;
74632;SDS011;63139;52.018;8.552;2024-03-07T02:41:51;26.25;;;14.48;;
74632;SDS011;63139;52.018;8.552;2024-03-07T02:44:19;27.33;;;15.25;;
74632;SDS011;63139;52.018;8.552;2024-03-07T02:46:47;27.58;;;15.02;;
74632;SDS011;63139;52.018;8.552;2024-03-07T02:49:15;28.63;;;15.00;;
74632;SDS011;63139;52.018;8.552;2024-03-07T02:51:43;26.15;;;13.60;;
74632;SDS011;63139;52.018;8.552;2024-03-07T02:54:11;30.35;;;15.40;;
74632;SDS011;63139;52.018;8.552;2024-03-07T02:56:41;31.52;;;16.02;;
74632;SDS011;63139;52.018;8.552;2024-03-07T02:59:10;32.17;;;15.07;;
74632;SDS011;63139;52.018;8.552;2024-03-07T03:01:38;29.10;;;13.60;;
74632;SDS011;63139;52.018;8.552;2024-03-07T03:04:06;31.95;;;15.73;;
74632;SDS011;63139;52.018;8.552;2024-03-07T03:06:34;29.45;;;14.95;;
74632;SDS011;63139;52.018;8.552;2024-03-07T03:09:02;30.73;;;15.38;;
74632;SDS011;63139;52.018;8.552;2024-03-07T03:11:31;27.58;;;14.00;;
74632;SDS011;63139;52.018;8.552;2024-03-07T03:14:01;27.63;;;13.32;;
74632;SDS011;63139;52.018;8.552;2024-03-07T03:16:30;28.15;;;14.68;;
74632;SDS011;63139;52.018;8.552;2024-03-07T03:19:13;28.80;;;13.80;;
74632;SDS011;63139;52.018;8.552;2024-03-07T03:21:41;24.63;;;13.48;;
74632;SDS011;63139;52.018;8.552;2024-03-07T03:24:10;32.30;;;16.20;;
74632;SDS011;63139;52.018;8.552;2024-03-07T03:26:38;30.83;;;15.68;;
74632;SDS011;63139;52.018;8.552;2024-03-07T03:29:10;39.25;;;18.05;;
74632;SDS011;63139;52.018;8.552;2024-03-07T03:31:40;31.75;;;15.50;;
74632;SDS011;63139;52.018;8.552;2024-03-07T03:34:08;29.48;;;14.60;;
74632;SDS011;63139;52.018;8.552;2024-03-07T03:36:37;31.00;;;14.73;;
74632;SDS011;63139;52.018;8.552;2024-03-07T03:39:05;24.73;;;13.23;;
74632;SDS011;63139;52.018;8.552;2024-03-07T03:41:34;23.52;;;12.23;;
74632;SDS011;63139;52.018;8.552;2024-03-07T03:44:03;30.55;;;14.85;;
74632;SDS011;63139;52.018;8.552;2024-03-07T03:46:34;33.13;;;16.20;;
74632;SDS011;63139;52.018;8.552;2024-03-07T03:49:02;28.95;;;15.88;;
74632;SDS011;63139;52.018;8.552;2024-03-07T03:51:31;31.98;;;16.35;;
74632;SDS011;63139;52.018;8.552;2024-03-07T03:54:00;30.15;;;14.70;;
74632;SDS011;63139;52.018;8.552;2024-03-07T03:56:28;28.63;;;14.95;;
74632;SDS011;63139;52.018;8.552;2024-03-07T03:58:56;29.23;;;15.48;;
74632;SDS011;63139;52.018;8.552;2024-03-07T04:01:24;34.97;;;17.70;;
74632;SDS011;63139;52.018;8.552;2024-03-07T04:03:54;39.47;;;18.05;;
74632;SDS011;63139;52.018;8.552;2024-03-07T04:06:22;34.33;;;17.38;;
74632;SDS011;63139;52.018;8.552;2024-03-07T04:08:50;36.25;;;18.52;;
74632;SDS011;63139;52.018;8.552;2024-03-07T04:11:20;34.78;;;17.45;;
74632;SDS011;63139;52.018;8.552;2024-03-07T04:13:48;34.92;;;17.38;;
74632;SDS011;63139;52.018;8.552;2024-03-07T04:16:16;33.17;;;17.08;;
74632;SDS011;63139;52.018;8.552;2024-03-07T04:18:45;34.03;;;17.17;;
74632;SDS011;63139;52.018;8.552;2024-03-07T04:21:14;32.25;;;16.27;;
74632;SDS011;63139;52.018;8.552;2024-03-07T04:23:42;32.38;;;16.67;;
74632;SDS011;63139;52.018;8.552;2024-03-07T04:26:13;38.05;;;19.33;;
74632;SDS011;63139;52.018;8.552;2024-03-07T04:28:42;39.38;;;19.65;;
74632;SDS011;63139;52.018;8.552;2024-03-07T04:31:10;35.10;;;16.88;;
74632;SDS011;63139;52.018;8.552;2024-03-07T04:33:37;32.28;;;16.98;;
74632;SDS011;63139;52.018;8.552;2024-03-07T04:36:06;30.85;;;15.80;;
74632;SDS011;63139;52.018;8.552;2024-03-07T04:38:36;29.55;;;14.63;;
74632;SDS011;63139;52.018;8.552;2024-03-07T04:41:04;35.53;;;16.75;;
74632;SDS011;63139;52.018;8.552;2024-03-07T04:43:32;41.85;;;19.90;;
74632;SDS011;63139;52.018;8.552;2024-03-07T04:46:00;34.65;;;17.60;;
74632;SDS011;63139;52.018;8.552;2024-03-07T04:48:28;38.13;;;18.95;;
74632;SDS011;63139;52.018;8.552;2024-03-07T04:50:56;37.60;;;17.55;;
74632;SDS011;63139;52.018;8.552;2024-03-07T04:53:24;32.42;;;16.48;;
74632;SDS011;63139;52.018;8.552;2024-03-07T04:55:54;35.63;;;17.92;;
74632;SDS011;63139;52.018;8.552;2024-03-07T04:58:22;33.13;;;16.58;;
74632;SDS011;63139;52.018;8.552;2024-03-07T05:00:50;41.47;;;18.98;;
74632;SDS011;63139;52.018;8.552;2024-03-07T05:03:18;41.05;;;18.77;;
74632;SDS011;63139;52.018;8.552;2024-03-07T05:05:46;34.90;;;18.15;;
74632;SDS011;63139;52.018;8.552;2024-03-07T05:08:14;36.03;;;18.33;;
74632;SDS011;63139;52.018;8.552;2024-03-07T05:10:43;38.00;;;19.23;;
74632;SDS011;63139;52.018;8.552;2024-03-07T05:13:12;38.53;;;20.27;;
74632;SDS011;63139;52.018;8.552;2024-03-07T05:15:41;37.50;;;19.98;;
74632;SDS011;63139;52.018;8.552;2024-03-07T05:18:09;39.30;;;20.92;;
74632;SDS011;63139;52.018;8.552;2024-03-07T05:20:39;39.53;;;19.73;;
74632;SDS011;63139;52.018;8.552;2024-03-07T05:23:07;39.03;;;19.98;;
74632;SDS011;63139;52.018;8.552;2024-03-07T05:25:38;35.78;;;19.38;;
74632;SDS011;63139;52.018;8.552;2024-03-07T05:28:06;34.75;;;18.10;;
74632;SDS011;63139;52.018;8.552;2024-03-07T05:30:36;33.45;;;17.52;;
74632;SDS011;63139;52.018;8.552;2024-03-07T05:33:05;34.42;;;18.92;;
74632;SDS011;63139;52.018;8.552;2024-03-07T05:35:33;33.97;;;18.58;;
74632;SDS011;63139;52.018;8.552;2024-03-07T05:38:01;31.05;;;17.30;;
74632;SDS011;63139;52.018;8.552;2024-03-07T05:40:31;34.78;;;18.60;;
74632;SDS011;63139;52.018;8.552;2024-03-07T05:42:59;38.90;;;18.77;;
74632;SDS011;63139;52.018;8.552;2024-03-07T05:45:27;32.80;;;17.52;;
74632;SDS011;63139;52.018;8.552;2024-03-07T05:47:57;35.45;;;19.70;;
74632;SDS011;63139;52.018;8.552;2024-03-07T05:50:25;35.20;;;19.15;;
74632;SDS011;63139;52.018;8.552;2024-03-07T05:52:53;34.28;;;18.58;;
74632;SDS011;63139;52.018;8.552;2024-03-07T05:55:21;33.45;;;17.77;;
74632;SDS011;63139;52.018;8.552;2024-03-07T05:57:49;34.78;;;18.88;;
74632;SDS011;63139;52.018;8.552;2024-03-07T06:00:18;32.50;;;18.45;;
74632;SDS011;63139;52.018;8.552;2024-03-07T06:02:56;31.45;;;18.33;;
74632;SDS011;63139;52.018;8.552;2024-03-07T06:05:25;30.95;;;18.90;;
74632;SDS011;63139;52.018;8.552;2024-03-07T06:07:53;34.13;;;19.40;;
74632;SDS011;63139;52.018;8.552;2024-03-07T06:10:23;31.85;;;18.75;;
74632;SDS011;63139;52.018;8.552;2024-03-07T06:12:51;35.13;;;19.48;;
74632;SDS011;63139;52.018;8.552;2024-03-07T06:15:35;35.55;;;20.48;;
74632;SDS011;63139;52.018;8.552;2024-03-07T06:18:06;32.60;;;19.73;;
74632;SDS011;63139;52.018;8.552;2024-03-07T06:20:34;38.40;;;20.50;;
74632;SDS011;63139;52.018;8.552;2024-03-07T06:23:02;33.42;;;19.67;;
74632;SDS011;63139;52.018;8.552;2024-03-07T06:25:31;32.58;;;18.77;;
74632;SDS011;63139;52.018;8.552;2024-03-07T06:28:04;37.00;;;19.88;;
74632;SDS011;63139;52.018;8.552;2024-03-07T06:30:38;34.08;;;19.77;;
74632;SDS011;63139;52.018;8.552;2024-03-07T06:33:09;31.25;;;18.52;;
74632;SDS011;63139;52.018;8.552;2024-03-07T06:35:37;31.55;;;18.52;;
74632;SDS011;63139;52.018;8.552;2024-03-07T06:38:06;32.90;;;18.90;;
74632;SDS011;63139;52.018;8.552;2024-03-07T06:40:35;34.42;;;19.95;;
74632;SDS011;63139;52.018;8.552;2024-03-07T06:43:03;34.10;;;20.15;;
74632;SDS011;63139;52.018;8.552;2024-03-07T06:45:33;33.75;;;18.48;;
74632;SDS011;63139;52.018;8.552;2024-03-07T06:48:02;34.03;;;19.38;;
74632;SDS011;63139;52.018;8.552;2024-03-07T06:50:35;31.27;;;19.33;;
74632;SDS011;63139;52.018;8.552;2024-03-07T06:53:05;27.42;;;17.60;;
74632;SDS011;63139;52.018;8.552;2024-03-07T06:55:35;32.65;;;20.48;;
74632;SDS011;63139;52.018;8.552;2024-03-07T06:58:03;32.33;;;18.73;;
74632;SDS011;63139;52.018;8.552;2024-03-07T07:00:32;34.42;;;20.52;;
74632;SDS011;63139;52.018;8.552;2024-03-07T07:03:04;35.40;;;19.70;;
74632;SDS011;63139;52.018;8.552;2024-03-07T07:05:32;30.65;;;18.83;;
74632;SDS011;63139;52.018;8.552;2024-03-07T07:08:03;34.72;;;19.70;;
74632;SDS011;63139;52.018;8.552;2024-03-07T07:10:34;31.63;;;18.77;;
74632;SDS011;63139;52.018;8.552;2024-03-07T07:13:02;33.30;;;18.50;;
74632;SDS011;63139;52.018;8.552;2024-03-07T07:15:31;32.30;;;19.13;;
74632;SDS011;63139;52.018;8.552;2024-03-07T07:18:01;33.13;;;18.52;;
74632;SDS011;63139;52.018;8.552;2024-03-07T07:20:30;27.75;;;17.35;;
74632;SDS011;63139;52.018;8.552;2024-03-07T07:23:02;34.35;;;20.13;;
74632;SDS011;63139;52.018;8.552;2024-03-07T07:25:31;28.58;;;17.25;;
74632;SDS011;63139;52.018;8.552;2024-03-07T07:27:59;28.13;;;17.55;;
74632;SDS011;63139;52.018;8.552;2024-03-07T07:30:30;27.70;;;16.75;;
74632;SDS011;63139;52.018;8.552;2024-03-07T07:32:58;29.50;;;17.67;;
74632;SDS011;63139;52.018;8.552;2024-03-07T07:35:26;31.48;;;18.90;;
74632;SDS011;63139;52.018;8.552;2024-03-07T07:37:54;29.33;;;17.58;;
74632;SDS011;63139;52.018;8.552;2024-03-07T07:40:24;28.25;;;17.33;;
74632;SDS011;63139;52.018;8.552;2024-03-07T07:42:54;29.05;;;17.52;;
74632;SDS011;63139;52.018;8.552;2024-03-07T07:45:23;27.73;;;16.73;;
74632;SDS011;63139;52.018;8.552;2024-03-07T07:47:52;30.00;;;16.98;;
74632;SDS011;63139;52.018;8.552;2024-03-07T07:50:22;28.58;;;17.40;;
74632;SDS011;63139;52.018;8.552;2024-03-07T07:52:52;25.42;;;16.35;;
74632;SDS011;63139;52.018;8.552;2024-03-07T07:55:22;33.63;;;19.13;;
74632;SDS011;63139;52.018;8.552;2024-03-07T07:57:52;28.58;;;18.10;;
74632;SDS011;63139;52.018;8.552;2024-03-07T08:00:22;28.67;;;16.98;;
74632;SDS011;63139;52.018;8.552;2024-03-07T08:02:52;28.30;;;16.65;;
74632;SDS011;63139;52.018;8.552;2024-03-07T08:05:22;28.17;;;16.45;;
74632;SDS011;63139;52.018;8.552;2024-03-07T08:07:51;25.60;;;15.55;;
74632;SDS011;63139;52.018;8.552;2024-03-07T08:10:21;31.50;;;17.55;;
74632;SDS011;63139;52.018;8.552;2024-03-07T08:12:52;26.92;;;16.13;;
74632;SDS011;63139;52.018;8.552;2024-03-07T08:15:20;25.40;;;15.50;;
74632;SDS011;63139;52.018;8.552;2024-03-07T08:17:48;26.17;;;16.13;;
74632;SDS011;63139;52.018;8.552;2024-03-07T08:20:18;28.63;;;16.17;;
74632;SDS011;63139;52.018;8.552;2024-03-07T08:22:49;31.17;;;18.40;;
74632;SDS011;63139;52.018;8.552;2024-03-07T08:25:19;31.90;;;17.92;;
74632;SDS011;63139;52.018;8.552;2024-03-07T08:27:50;28.80;;;17.67;;
74632;SDS011;63139;52.018;8.552;2024-03-07T08:30:21;27.98;;;16.63;;
74632;SDS011;63139;52.018;8.552;2024-03-07T08:32:50;29.55;;;17.95;;
74632;SDS011;63139;52.018;8.552;2024-03-07T08:35:19;26.42;;;17.10;;
74632;SDS011;63139;52.018;8.552;2024-03-07T08:37:49;29.63;;;17.33;;
74632;SDS011;63139;52.018;8.552;2024-03-07T08:40:20;28.65;;;16.52;;
74632;SDS011;63139;52.018;8.552;2024-03-07T08:42:56;32.80;;;17.90;;
74632;SDS011;63139;52.018;8.552;2024-03-07T08:45:25;30.30;;;17.70;;
74632;SDS011;63139;52.018;8.552;2024-03-07T08:47:53;31.10;;;17.15;;
74632;SDS011;63139;52.018;8.552;2024-03-07T08:50:24;28.70;;;17.08;;
74632;SDS011;63139;52.018;8.552;2024-03-07T08:52:53;31.85;;;18.23;;
74632;SDS011;63139;52.018;8.552;2024-03-07T08:55:22;28.13;;;16.58;;
74632;SDS011;63139;52.018;8.552;2024-03-07T08:57:52;34.65;;;19.05;;
74632;SDS011;63139;52.018;8.552;2024-03-07T09:00:22;33.33;;;19.50;;
74632;SDS011;63139;52.018;8.552;2024-03-07T09:02:53;35.03;;;19.65;;
74632;SDS011;63139;52.018;8.552;2024-03-07T09:05:25;31.58;;;19.33;;
74632;SDS011;63139;52.018;8.552;2024-03-07T09:07:54;31.05;;;17.90;;
74632;SDS011;63139;52.018;8.552;2024-03-07T09:10:22;32.75;;;18.90;;
74632;SDS011;63139;52.018;8.552;2024-03-07T09:12:52;33.08;;;18.25;;
74632;SDS011;63139;52.018;8.552;2024-03-07T09:15:23;28.17;;;16.95;;
74632;SDS011;63139;52.018;8.552;2024-03-07T09:17:51;33.83;;;19.67;;
74632;SDS011;63139;52.018;8.552;2024-03-07T09:20:20;38.80;;;19.98;;
74632;SDS011;63139;52.018;8.552;2024-03-07T09:22:50;35.90;;;20.50;;
74632;SDS011;63139;52.018;8.552;2024-03-07T09:25:21;31.80;;;18.60;;
74632;SDS011;63139;52.018;8.552;2024-03-07T09:27:51;34.50;;;20.38;;
74632;SDS011;63139;52.018;8.552;2024-03-07T09:30:20;35.28;;;20.13;;
74632;SDS011;63139;52.018;8.552;2024-03-07T09:32:54;32.35;;;19.27;;
74632;SDS011;63139;52.018;8.552;2024-03-07T09:35:23;31.05;;;18.55;;
74632;SDS011;63139;52.018;8.552;2024-03-07T09:37:51;32.22;;;18.45;;
74632;SDS011;63139;52.018;8.552;2024-03-07T09:40:21;35.42;;;19.17;;
74632;SDS011;63139;52.018;8.552;2024-03-07T09:42:52;32.70;;;18.67;;
74632;SDS011;63139;52.018;8.552;2024-03-07T09:45:21;30.90;;;18.73;;
74632;SDS011;63139;52.018;8.552;2024-03-07T09:47:57;39.25;;;21.20;;
74632;SDS011;63139;52.018;8.552;2024-03-07T09:50:25;38.65;;;20.15;;
74632;SDS011;63139;52.018;8.552;2024-03-07T09:52:56;33.45;;;19.63;;
74632;SDS011;63139;52.018;8.552;2024-03-07T09:55:27;38.10;;;19.90;;
74632;SDS011;63139;52.018;8.552;2024-03-07T09:57:56;37.95;;;20.20;;
74632;SDS011;63139;52.018;8.552;2024-03-07T10:00:27;35.28;;;20.17;;
74632;SDS011;63139;52.018;8.552;2024-03-07T10:02:59;38.45;;;21.05;;
74632;SDS011;63139;52.018;8.552;2024-03-07T10:05:33;39.57;;;21.23;;
74632;SDS011;63139;52.018;8.552;2024-03-07T10:08:01;41.45;;;21.30;;
74632;SDS011;63139;52.018;8.552;2024-03-07T10:10:29;41.08;;;21.40;;
74632;SDS011;63139;52.018;8.552;2024-03-07T10:12:58;43.15;;;21.15;;
74632;SDS011;63139;52.018;8.552;2024-03-07T10:15:28;45.78;;;21.70;;
74632;SDS011;63139;52.018;8.552;2024-03-07T10:17:56;48.78;;;22.02;;
74632;SDS011;63139;52.018;8.552;2024-03-07T10:20:26;52.75;;;24.92;;
74632;SDS011;63139;52.018;8.552;2024-03-07T10:22:55;51.25;;;24.15;;
74632;SDS011;63139;52.018;8.552;2024-03-07T10:25:24;43.78;;;22.33;;
74632;SDS011;63139;52.018;8.552;2024-03-07T10:27:55;58.33;;;26.35;;
74632;SDS011;63139;52.018;8.552;2024-03-07T10:30:25;49.78;;;23.42;;
74632;SDS011;63139;52.018;8.552;2024-03-07T10:32:54;56.88;;;24.42;;
74632;SDS011;63139;52.018;8.552;2024-03-07T10:35:27;57.70;;;24.65;;
74632;SDS011;63139;52.018;8.552;2024-03-07T10:37:58;52.20;;;23.52;;
74632;SDS011;63139;52.018;8.552;2024-03-07T10:40:29;45.95;;;23.33;;
74632;SDS011;63139;52.018;8.552;2024-03-07T10:42:57;46.60;;;21.65;;
74632;SDS011;63139;52.018;8.552;2024-03-07T10:45:30;46.53;;;22.48;;
74632;SDS011;63139;52.018;8.552;2024-03-07T10:48:01;52.92;;;22.58;;
74632;SDS011;63139;52.018;8.552;2024-03-07T10:50:41;51.65;;;22.50;;
74632;SDS011;63139;52.018;8.552;2024-03-07T10:53:19;46.80;;;21.33;;
74632;SDS011;63139;52.018;8.552;2024-03-07T10:55:58;51.08;;;22.55;;
74632;SDS011;63139;52.018;8.552;2024-03-07T10:58:42;49.83;;;21.25;;
74632;SDS011;63139;52.018;8.552;2024-03-07T11:01:20;50.97;;;22.88;;
74632;SDS011;63139;52.018;8.552;2024-03-07T11:03:50;44.13;;;20.75;;
74632;SDS011;63139;52.018;8.552;2024-03-07T11:06:23;45.33;;;20.73;;
74632;SDS011;63139;52.018;8.552;2024-03-07T11:08:52;48.70;;;23.08;;
74632;SDS011;63139;52.018;8.552;2024-03-07T11:11:22;45.95;;;21.48;;
74632;SDS011;63139;52.018;8.552;2024-03-07T11:13:51;48.85;;;22.17;;
74632;SDS011;63139;52.018;8.552;2024-03-07T11:16:21;49.60;;;21.42;;
74632;SDS011;63139;52.018;8.552;2024-03-07T11:21:56;43.10;;;20.15;;
74632;SDS011;63139;52.018;8.552;2024-03-07T11:24:27;42.53;;;21.02;;
74632;SDS011;63139;52.018;8.552;2024-03-07T11:26:59;41.92;;;19.63;;
74632;SDS011;63139;52.018;8.552;2024-03-07T11:29:38;39.85;;;19.08;;
74632;SDS011;63139;52.018;8.552;2024-03-07T11:32:11;41.80;;;18.25;;
74632;SDS011;63139;52.018;8.552;2024-03-07T11:34:40;40.80;;;17.65;;
74632;SDS011;63139;52.018;8.552;2024-03-07T11:37:10;36.58;;;17.73;;
74632;SDS011;63139;52.018;8.552;2024-03-07T11:39:45;37.33;;;18.00;;
74632;SDS011;63139;52.018;8.552;2024-03-07T11:42:23;38.83;;;18.77;;
74632;SDS011;63139;52.018;8.552;2024-03-07T11:44:53;36.72;;;18.05;;
74632;SDS011;63139;52.018;8.552;2024-03-07T11:47:23;42.40;;;19.15;;
74632;SDS011;63139;52.018;8.552;2024-03-07T11:49:52;36.33;;;18.17;;
74632;SDS011;63139;52.018;8.552;2024-03-07T11:52:21;40.88;;;18.75;;
74632;SDS011;63139;52.018;8.552;2024-03-07T11:54:49;34.53;;;16.90;;
74632;SDS011;63139;52.018;8.552;2024-03-07T11:57:19;26.92;;;14.98;;
74632;SDS011;63139;52.018;8.552;2024-03-07T11:59:53;30.17;;;15.45;;
74632;SDS011;63139;52.018;8.552;2024-03-07T12:02:20;29.13;;;14.90;;
74632;SDS011;63139;52.018;8.552;2024-03-07T12:04:49;33.50;;;16.20;;
74632;SDS011;63139;52.018;8.552;2024-03-07T12:07:18;32.55;;;15.10;;
74632;SDS011;63139;52.018;8.552;2024-03-07T12:09:50;26.80;;;14.80;;
74632;SDS011;63139;52.018;8.552;2024-03-07T12:12:22;28.27;;;14.15;;
74632;SDS011;63139;52.018;8.552;2024-03-07T12:14:51;31.60;;;15.57;;
74632;SDS011;63139;52.018;8.552;2024-03-07T12:17:19;30.13;;;15.48;;
74632;SDS011;63139;52.018;8.552;2024-03-07T12:19:49;28.02;;;15.35;;
74632;SDS011;63139;52.018;8.552;2024-03-07T12:22:19;31.50;;;16.38;;
74632;SDS011;63139;52.018;8.552;2024-03-07T12:25:00;29.40;;;15.35;;
74632;SDS011;63139;52.018;8.552;2024-03-07T12:27:29;32.75;;;15.18;;
74632;SDS011;63139;52.018;8.552;2024-03-07T12:29:58;26.48;;;14.60;;
74632;SDS011;63139;52.018;8.552;2024-03-07T12:32:28;32.28;;;15.80;;
74632;SDS011;63139;52.018;8.552;2024-03-07T12:34:58;32.00;;;16.27;;
74632;SDS011;63139;52.018;8.552;2024-03-07T12:37:26;36.72;;;17.85;;
74632;SDS011;63139;52.018;8.552;2024-03-07T12:39:56;27.95;;;15.52;;
74632;SDS011;63139;52.018;8.552;2024-03-07T12:42:29;29.83;;;15.27;;
74632;SDS011;63139;52.018;8.552;2024-03-07T12:44:58;31.27;;;15.13;;
74632;SDS011;63139;52.018;8.552;2024-03-07T12:47:27;28.30;;;14.90;;
74632;SDS011;63139;52.018;8.552;2024-03-07T12:49:55;36.13;;;16.55;;
74632;SDS011;63139;52.018;8.552;2024-03-07T12:52:25;35.83;;;17.55;;
74632;SDS011;63139;52.018;8.552;2024-03-07T12:54:53;34.05;;;17.52;;
74632;SDS011;63139;52.018;8.552;2024-03-07T12:57:22;38.08;;;19.42;;
74632;SDS011;63139;52.018;8.552;2024-03-07T12:59:52;36.60;;;18.10;;
74632;SDS011;63139;52.018;8.552;2024-03-07T13:02:21;35.42;;;17.55;;
74632;SDS011;63139;52.018;8.552;2024-03-07T13:04:54;36.38;;;16.67;;
74632;SDS011;63139;52.018;8.552;2024-03-07T13:07:22;38.65;;;18.10;;
74632;SDS011;63139;52.018;8.552;2024-03-07T13:09:50;38.05;;;17.20;;
74632;SDS011;63139;52.018;8.552;2024-03-07T13:12:18;34.83;;;16.70;;
74632;SDS011;63139;52.018;8.552;2024-03-07T13:14:46;32.35;;;15.73;;
74632;SDS011;63139;52.018;8.552;2024-03-07T13:17:16;29.05;;;15.43;;
74632;SDS011;63139;52.018;8.552;2024-03-07T13:19:45;42.05;;;19.95;;
74632;SDS011;63139;52.018;8.552;2024-03-07T13:22:16;38.85;;;18.88;;
74632;SDS011;63139;52.018;8.552;2024-03-07T13:24:44;31.45;;;16.98;;
74632;SDS011;63139;52.018;8.552;2024-03-07T13:27:12;33.00;;;17.30;;
74632;SDS011;63139;52.018;8.552;2024-03-07T13:29:45;42.30;;;20.75;;
74632;SDS011;63139;52.018;8.552;2024-03-07T13:32:17;38.00;;;17.80;;
74632;SDS011;63139;52.018;8.552;2024-03-07T13:34:45;32.80;;;17.90;;
74632;SDS011;63139;52.018;8.552;2024-03-07T13:37:14;35.72;;;17.48;;
74632;SDS011;63139;52.018;8.552;2024-03-07T13:39:44;41.85;;;19.13;;
74632;SDS011;63139;52.018;8.552;2024-03-07T13:42:13;41.13;;;18.63;;
74632;SDS011;63139;52.018;8.552;2024-03-07T13:44:43;37.72;;;18.20;;
74632;SDS011;63139;52.018;8.552;2024-03-07T13:47:11;35.47;;;16.77;;
74632;SDS011;63139;52.018;8.552;2024-03-07T13:49:40;37.35;;;18.30;;
74632;SDS011;63139;52.018;8.552;2024-03-07T13:52:09;32.30;;;16.55;;
74632;SDS011;63139;52.018;8.552;2024-03-07T13:54:44;35.47;;;18.13;;
74632;SDS011;63139;52.018;8.552;2024-03-07T13:57:20;38.15;;;18.83;;
74632;SDS011;63139;52.018;8.552;2024-03-07T13:59:59;38.78;;;17.27;;
74632;SDS011;63139;52.018;8.552;2024-03-07T14:05:58;34.85;;;16.88;;
74632;SDS011;63139;52.018;8.552;2024-03-07T14:08:49;33.90;;;16.15;;
74632;SDS011;63139;52.018;8.552;2024-03-07T14:18:08;31.10;;;16.73;;
74632;SDS011;63139;52.018;8.552;2024-03-07T14:20:54;40.63;;;18.35;;
74632;SDS011;63139;52.018;8.552;2024-03-07T14:23:41;42.97;;;18.75;;
74632;SDS011;63139;52.018;8.552;2024-03-07T14:29:47;36.85;;;16.35;;
74632;SDS011;63139;52.018;8.552;2024-03-07T14:32:23;41.30;;;17.83;;
74632;SDS011;63139;52.018;8.552;2024-03-07T14:34:55;35.72;;;16.85;;
74632;SDS011;63139;52.018;8.552;2024-03-07T14:37:33;38.90;;;18.35;;
74632;SDS011;63139;52.018;8.552;2024-03-07T14:40:07;37.80;;;17.05;;
74632;SDS011;63139;52.018;8.552;2024-03-07T14:42:39;42.00;;;19.58;;
74632;SDS011;63139;52.018;8.552;2024-03-07T14:45:12;37.58;;;18.60;;
74632;SDS011;63139;52.018;8.552;2024-03-07T14:47:47;40.25;;;18.70;;
74632;SDS011;63139;52.018;8.552;2024-03-07T14:50:17;36.17;;;17.23;;
74632;SDS011;63139;52.018;8.552;2024-03-07T14:52:48;41.88;;;18.70;;